Time,TemperatureF,DewpointF,PressureIn,WindDirection,WindDirectionDegrees,WindSpeedMPH,WindSpeedGustMPH,Humidity,HourlyPrecipIn,Conditions,Clouds,dailyrainin,SoftwareType,DateUTC
2013-09-21 00:03:00,55.0,52.0,-100.00,WNW,285,7.0,11.0,90,0.00,,,-99.99,,2013-09-21 05:03:00,
2013-09-21 00:13:00,55.0,52.0,-100.00,WNW,285,7.0,11.0,90,0.00,,,-99.99,,2013-09-21 05:13:00,
2013-09-21 00:53:00,53.0,51.0,-100.00,WNW,285,6.0,9.0,90,0.00,,,-99.99,,2013-09-21 05:53:00,
2013-09-21 01:02:00,53.0,51.0,-100.00,WNW,285,6.0,9.0,90,0.00,,,-99.99,,2013-09-21 06:02:00,
2013-09-21 01:12:00,53.0,51.0,-100.00,WNW,285,6.0,9.0,90,0.00,,,-99.99,,2013-09-21 06:12:00,
2013-09-21 01:53:00,53.0,49.0,-100.00,WNW,295,9.0,13.0,89,0.00,,,-99.99,,2013-09-21 06:53:00,
2013-09-21 02:01:00,53.0,49.0,-100.00,WNW,295,9.0,13.0,89,0.00,,,-99.99,,2013-09-21 07:01:00,
2013-09-21 02:11:00,53.0,49.0,-100.00,WNW,295,9.0,13.0,89,0.00,,,-99.99,,2013-09-21 07:11:00,
2013-09-21 02:52:00,52.0,47.0,-100.00,WNW,285,6.0,11.0,86,0.00,,,-99.99,,2013-09-21 07:52:00,
2013-09-21 03:03:00,52.0,47.0,-100.00,WNW,285,6.0,11.0,86,0.00,,,-99.99,,2013-09-21 08:03:00,
2013-09-21 03:13:00,52.0,47.0,-100.00,WNW,285,6.0,11.0,86,0.00,,,-99.99,,2013-09-21 08:13:00,
2013-09-21 03:52:00,51.0,47.0,-100.00,WNW,290,6.0,12.0,89,0.00,,,-99.99,,2013-09-21 08:52:00,
2013-09-21 04:02:00,51.0,47.0,-100.00,WNW,290,6.0,12.0,89,0.00,,,-99.99,,2013-09-21 09:02:00,
2013-09-21 04:11:00,51.0,47.0,-100.00,WNW,290,6.0,12.0,89,0.00,,,-99.99,,2013-09-21 09:11:00,
2013-09-21 04:54:00,50.0,47.0,-100.00,WNW,300,7.0,12.0,89,0.00,,,-99.99,,2013-09-21 09:54:00,
2013-09-21 05:03:00,50.0,47.0,-100.00,WNW,300,7.0,12.0,89,0.00,,,-99.99,,2013-09-21 10:03:00,
2013-09-21 05:12:00,50.0,47.0,-100.00,WNW,300,7.0,12.0,89,0.00,,,-99.99,,2013-09-21 10:12:00,
2013-09-21 05:52:00,49.0,46.0,-100.00,WNW,300,6.0,12.0,89,0.00,,,-99.99,,2013-09-21 10:52:00,
2013-09-21 06:03:00,49.0,46.0,-100.00,WNW,300,6.0,12.0,89,0.00,,,-99.99,,2013-09-21 11:03:00,
2013-09-21 06:11:00,49.0,46.0,-100.00,WNW,300,6.0,12.0,89,0.00,,,-99.99,,2013-09-21 11:11:00,
2013-09-21 06:52:00,48.0,45.0,-100.00,WNW,285,6.0,9.0,91,0.00,,,-99.99,,2013-09-21 11:52:00,
2013-09-21 07:02:00,48.0,45.0,-100.00,WNW,285,6.0,9.0,91,0.00,,,-99.99,,2013-09-21 12:02:00,
2013-09-21 07:12:00,48.0,45.0,-100.00,WNW,285,6.0,9.0,91,0.00,,,-99.99,,2013-09-21 12:12:00,
2013-09-21 07:52:00,48.0,45.0,-100.00,WNW,285,7.0,11.0,91,0.00,,,-99.99,,2013-09-21 12:52:00,
2013-09-21 08:02:00,48.0,45.0,-100.00,WNW,285,7.0,11.0,91,0.00,,,-99.99,,2013-09-21 13:02:00,
2013-09-21 08:11:00,48.0,45.0,-100.00,WNW,285,7.0,11.0,91,0.00,,,-99.99,,2013-09-21 13:11:00,
2013-09-21 08:53:00,51.0,48.0,-100.00,WNW,295,7.0,12.0,91,0.00,,,-99.99,,2013-09-21 13:53:00,
2013-09-21 09:02:00,51.0,48.0,-100.00,WNW,295,7.0,12.0,91,0.00,,,-99.99,,2013-09-21 14:02:00,
2013-09-21 09:11:00,51.0,48.0,-100.00,WNW,295,7.0,12.0,91,0.00,,,-99.99,,2013-09-21 14:11:00,
2013-09-21 09:20:00,54.0,43.0,-100.00,WNW,300,10.0,21.0,66,0.00,,,-99.99,,2013-09-21 14:20:00,
2013-09-21 09:52:00,54.0,43.0,-100.00,WNW,300,10.0,21.0,66,0.00,,,-99.99,,2013-09-21 14:52:00,
2013-09-21 10:01:00,54.0,43.0,-100.00,WNW,300,10.0,21.0,66,0.00,,,-99.99,,2013-09-21 15:01:00,
2013-09-21 10:12:00,54.0,43.0,-100.00,WNW,300,10.0,21.0,66,0.00,,,-99.99,,2013-09-21 15:12:00,
2013-09-21 10:55:00,54.0,40.0,-100.00,NW,320,12.0,17.0,58,0.00,,,-99.99,,2013-09-21 15:55:00,
2013-09-21 11:05:00,54.0,40.0,-100.00,NW,320,12.0,17.0,58,0.00,,,-99.99,,2013-09-21 16:05:00,
2013-09-21 11:14:00,54.0,40.0,-100.00,NW,320,12.0,17.0,58,0.00,,,-99.99,,2013-09-21 16:14:00,
2013-09-21 11:54:00,55.0,38.0,-100.00,NNW,330,9.0,16.0,54,0.00,,,-99.99,,2013-09-21 16:54:00,
2013-09-21 12:03:00,55.0,38.0,-100.00,NNW,330,9.0,16.0,54,0.00,,,-99.99,,2013-09-21 17:03:00,
2013-09-21 12:12:00,55.0,38.0,-100.00,NNW,330,9.0,16.0,54,0.00,,,-99.99,,2013-09-21 17:12:00,
2013-09-21 12:52:00,56.0,39.0,-100.00,NW,320,10.0,17.0,54,0.00,,,-99.99,,2013-09-21 17:52:00,
2013-09-21 13:02:00,56.0,39.0,-100.00,NW,320,10.0,17.0,54,0.00,,,-99.99,,2013-09-21 18:02:00,
2013-09-21 13:12:00,56.0,39.0,-100.00,NW,320,10.0,17.0,54,0.00,,,-99.99,,2013-09-21 18:12:00,
2013-09-21 13:52:00,57.0,38.0,-100.00,WNW,300,11.0,18.0,50,0.00,,,-99.99,,2013-09-21 18:52:00,
2013-09-21 14:02:00,57.0,38.0,-100.00,WNW,300,11.0,18.0,50,0.00,,,-99.99,,2013-09-21 19:02:00,
2013-09-21 14:11:00,57.0,38.0,-100.00,WNW,300,11.0,18.0,50,0.00,,,-99.99,,2013-09-21 19:11:00,
2013-09-21 14:52:00,58.0,40.0,-100.00,WNW,295,9.0,14.0,51,0.00,,,-99.99,,2013-09-21 19:52:00,
2013-09-21 15:02:00,58.0,40.0,-100.00,WNW,295,9.0,14.0,51,0.00,,,-99.99,,2013-09-21 20:02:00,
2013-09-21 15:12:00,58.0,40.0,-100.00,WNW,295,9.0,14.0,51,0.00,,,-99.99,,2013-09-21 20:12:00,
2013-09-21 15:52:00,58.0,39.0,-100.00,WNW,285,9.0,17.0,50,0.00,,,-99.99,,2013-09-21 20:52:00,
2013-09-21 16:02:00,58.0,39.0,-100.00,WNW,285,9.0,17.0,50,0.00,,,-99.99,,2013-09-21 21:02:00,
2013-09-21 16:12:00,58.0,39.0,-100.00,WNW,285,9.0,17.0,50,0.00,,,-99.99,,2013-09-21 21:12:00,
2013-09-21 16:54:00,60.0,39.0,-100.00,North,0,7.0,13.0,46,0.00,,,-99.99,,2013-09-21 21:54:00,
2013-09-21 17:05:00,60.0,39.0,-100.00,North,0,7.0,13.0,46,0.00,,,-99.99,,2013-09-21 22:05:00,
2013-09-21 17:14:00,60.0,39.0,-100.00,North,0,7.0,13.0,46,0.00,,,-99.99,,2013-09-21 22:14:00,
2013-09-21 17:53:00,61.0,40.0,-100.00,WNW,300,6.0,11.0,46,0.00,,,-99.99,,2013-09-21 22:53:00,
2013-09-21 18:03:00,61.0,40.0,-100.00,WNW,300,6.0,11.0,46,0.00,,,-99.99,,2013-09-21 23:03:00,
2013-09-21 18:13:00,61.0,40.0,-100.00,WNW,300,6.0,11.0,46,0.00,,,-99.99,,2013-09-21 23:13:00,
2013-09-21 18:53:00,60.0,41.0,-100.00,NNW,340,2.0,4.0,50,0.00,,,-99.99,,2013-09-21 23:53:00,
2013-09-21 19:02:00,60.0,41.0,-100.00,NNW,340,2.0,4.0,50,0.00,,,-99.99,,2013-09-22 00:02:00,
2013-09-21 19:12:00,60.0,41.0,-100.00,NNW,340,2.0,4.0,50,0.00,,,-99.99,,2013-09-22 00:12:00,
2013-09-21 19:52:00,53.0,45.0,-100.00,NNE,30,0.0,1.0,75,0.00,,,-99.99,,2013-09-22 00:52:00,
2013-09-21 20:02:00,53.0,45.0,-100.00,NNE,30,0.0,1.0,75,0.00,,,-99.99,,2013-09-22 01:02:00,
2013-09-21 20:12:00,53.0,45.0,-100.00,NNE,30,0.0,1.0,75,0.00,,,-99.99,,2013-09-22 01:12:00,
2013-09-21 20:52:00,49.0,45.0,-100.00,NE,35,1.0,1.0,87,0.00,,,-99.99,,2013-09-22 01:52:00,
2013-09-21 21:02:00,49.0,45.0,-100.00,NE,35,1.0,1.0,87,0.00,,,-99.99,,2013-09-22 02:02:00,
2013-09-21 21:12:00,49.0,45.0,-100.00,NE,35,1.0,1.0,87,0.00,,,-99.99,,2013-09-22 02:12:00,
2013-09-21 21:52:00,49.0,46.0,-100.00,SSW,200,0.0,0.0,89,0.00,,,-99.99,,2013-09-22 02:52:00,
2013-09-21 22:02:00,49.0,46.0,-100.00,SSW,200,0.0,0.0,89,0.00,,,-99.99,,2013-09-22 03:02:00,
2013-09-21 22:12:00,49.0,46.0,-100.00,SSW,200,0.0,0.0,89,0.00,,,-99.99,,2013-09-22 03:12:00,
2013-09-21 22:54:00,49.0,46.0,-100.00,West,280,0.0,1.0,90,0.00,,,-99.99,,2013-09-22 03:54:00,
2013-09-21 23:02:00,-999.0,-99.9,-100.00,West,280,0.0,1.0,-999,-99.99,,,-99.99,,2013-09-22 04:02:00,
2013-09-21 23:14:00,49.0,46.0,-100.00,West,280,0.0,1.0,90,0.00,,,-99.99,,2013-09-22 04:14:00,
2013-09-21 23:54:00,46.0,44.0,-100.00,West,275,0.0,1.0,91,0.00,,,-99.99,,2013-09-22 04:54:00,